Lassance, Brazil
Current Conditions -  °F | °C
As of 9:00 PM on Friday 24 Oct 2014 (Local Time) from SBMK Reporting Station
Clear Clear  
Wind Chill: 82°   Ceiling: Unl
Heat Index: 82°   Visibility: 6mi
Dew Point: 52°   Wind: 6mph
Humidity: 35%   Direction: 100°E
Pressure: 29.91"   Gusts: NA
Location:  17.89°S, 44.58°W
Report Text: SBMK 242300Z 10005KT CAVOK 28/11 Q1013
Loading
Personal Weather Stations






























Interactive Weather Map
Tropical Storm Tracking
New forecast layout! Learn more

10-Day Weather Forecast

Advertisements
Track Severe Weather on mobile